createdAt,value
2019-03-28T00:02:24.535Z,9.10
2019-03-28T00:04:55.635Z,8.65
2019-03-28T00:07:26.450Z,10.57
2019-03-28T00:09:57.354Z,10.28
2019-03-28T00:12:28.334Z,7.00
2019-03-28T00:14:59.038Z,9.53
2019-03-28T00:17:30.003Z,7.85
2019-03-28T00:20:00.861Z,9.38
2019-03-28T00:23:00.069Z,7.83
2019-03-28T00:25:31.933Z,7.83
2019-03-28T00:28:02.697Z,7.85
2019-03-28T00:30:33.691Z,8.80
2019-03-28T00:33:04.738Z,11.40
2019-03-28T00:35:35.528Z,8.73
2019-03-28T00:38:06.412Z,10.70
2019-03-28T00:40:37.122Z,7.33
2019-03-28T00:43:08.230Z,8.83
2019-03-28T00:45:39.028Z,7.77
2019-03-28T00:48:09.785Z,8.00
2019-03-28T00:50:40.874Z,6.83
2019-03-28T00:53:11.809Z,10.63
2019-03-28T00:55:42.788Z,6.10
2019-03-28T00:58:13.893Z,11.60
2019-03-28T01:00:45.088Z,6.23
2019-03-28T01:03:16.176Z,6.95
2019-03-28T01:05:47.179Z,6.00
2019-03-28T01:08:18.225Z,11.88
2019-03-28T01:10:49.238Z,10.08
2019-03-28T01:13:20.278Z,8.33
2019-03-28T01:15:51.684Z,8.60
2019-03-28T01:18:22.759Z,7.25
2019-03-28T01:20:53.780Z,6.28
2019-03-28T01:23:24.991Z,5.37
2019-03-28T01:25:56.014Z,5.53
2019-03-28T01:28:26.962Z,5.70
2019-03-28T01:30:58.101Z,5.30
2019-03-28T01:33:29.117Z,5.80
2019-03-28T01:36:00.866Z,6.67
2019-03-28T01:38:31.861Z,6.40
2019-03-28T01:41:02.959Z,6.10
2019-03-28T01:43:33.971Z,8.60
2019-03-28T01:46:05.388Z,6.20
2019-03-28T01:48:36.504Z,6.30
2019-03-28T01:51:07.672Z,6.40
2019-03-28T01:53:38.658Z,9.90
2019-03-28T01:56:09.921Z,10.32
2019-03-28T01:59:01.342Z,7.72
2019-03-28T02:01:32.509Z,6.72
2019-03-28T02:04:03.926Z,5.95
2019-03-28T02:06:35.152Z,6.75
2019-03-28T02:09:07.766Z,5.85
2019-03-28T02:11:38.810Z,8.73
2019-03-28T02:14:10.134Z,6.10
2019-03-28T02:16:41.212Z,5.65
2019-03-28T02:19:12.265Z,6.25
2019-03-28T02:21:43.450Z,6.20
2019-03-28T02:24:14.398Z,5.30
2019-03-28T02:26:45.512Z,5.55
2019-03-28T02:29:16.634Z,5.40
2019-03-28T02:31:47.558Z,6.65
2019-03-28T02:34:18.709Z,8.28
2019-03-28T02:36:49.827Z,5.28
2019-03-28T02:39:20.797Z,4.85
2019-03-28T02:41:51.800Z,4.85
2019-03-28T02:44:22.876Z,4.80
2019-03-28T02:46:53.882Z,4.70
2019-03-28T02:50:17.466Z,6.37
2019-03-28T02:52:48.776Z,4.28
2019-03-28T02:55:20.221Z,5.25
2019-03-28T02:57:51.460Z,4.95
2019-03-28T03:00:23.229Z,5.10
2019-03-28T03:02:54.428Z,5.05
2019-03-28T03:05:25.670Z,5.40
2019-03-28T03:07:56.834Z,5.22
2019-03-28T03:10:28.301Z,4.90
2019-03-28T03:12:59.462Z,7.87
2019-03-28T03:15:30.595Z,5.33
2019-03-28T03:18:01.686Z,5.03
2019-03-28T03:20:32.951Z,7.05
2019-03-28T03:23:04.178Z,5.92
2019-03-28T03:25:35.089Z,4.92
2019-03-28T03:28:06.365Z,5.45
2019-03-28T03:30:37.402Z,4.45
2019-03-28T03:33:09.215Z,5.25
2019-03-28T03:35:40.684Z,5.25
2019-03-28T03:38:11.770Z,5.92
2019-03-28T03:40:42.784Z,5.20
2019-03-28T03:43:14.044Z,7.90
2019-03-28T03:45:45.345Z,6.80
2019-03-28T03:48:16.443Z,4.92
2019-03-28T03:50:48.695Z,6.10
2019-03-28T03:53:20.070Z,10.40
2019-03-28T03:55:51.067Z,5.72
2019-03-28T03:58:22.174Z,10.90
2019-03-28T04:00:53.266Z,8.15
2019-03-28T04:03:24.538Z,5.62
2019-03-28T04:05:55.666Z,8.10
2019-03-28T04:08:27.133Z,9.68
2019-03-28T04:10:59.525Z,6.20
2019-03-28T04:13:30.638Z,6.45
2019-03-28T04:16:01.870Z,10.40
2019-03-28T04:18:33.273Z,12.70
2019-03-28T04:21:04.318Z,9.97
2019-03-28T04:23:35.512Z,5.30
2019-03-28T04:26:06.830Z,4.37
2019-03-28T04:28:39.768Z,5.10
2019-03-28T04:31:10.825Z,5.00
2019-03-28T04:33:41.859Z,5.00
2019-03-28T04:36:12.907Z,4.57
2019-03-28T04:38:43.914Z,7.40
2019-03-28T04:41:15.056Z,5.00
2019-03-28T04:43:46.266Z,5.33
2019-03-28T04:46:17.557Z,4.20
2019-03-28T04:48:50.784Z,5.23
2019-03-28T04:51:22.579Z,4.47
2019-03-28T04:53:56.203Z,8.97
2019-03-28T04:56:26.352Z,4.47
2019-03-28T04:58:57.729Z,4.93
2019-03-28T05:01:28.933Z,6.50
2019-03-28T05:04:00.197Z,4.30
2019-03-28T05:06:31.550Z,5.20
2019-03-28T05:09:02.885Z,7.10
2019-03-28T05:11:34.084Z,6.23
2019-03-28T05:14:05.170Z,5.03
2019-03-28T05:16:36.215Z,11.60
2019-03-28T05:19:07.377Z,3.83
2019-03-28T05:21:38.400Z,4.37
2019-03-28T05:24:09.630Z,3.87
2019-03-28T05:26:41.345Z,3.93
2019-03-28T05:29:12.538Z,3.63
2019-03-28T05:31:43.802Z,4.83
2019-03-28T05:34:14.969Z,3.63
2019-03-28T05:36:46.335Z,4.43
2019-03-28T05:39:17.421Z,4.10
2019-03-28T05:41:48.895Z,4.30
2019-03-28T05:44:20.058Z,4.27
2019-03-28T05:46:51.537Z,4.40
2019-03-28T05:49:22.754Z,5.03
2019-03-28T05:51:53.965Z,3.87
2019-03-28T05:54:25.158Z,4.40
2019-03-28T05:56:56.327Z,3.93
2019-03-28T05:59:27.322Z,4.20
2019-03-28T06:01:58.391Z,5.00
2019-03-28T06:04:29.560Z,5.63
2019-03-28T06:07:00.705Z,4.70
2019-03-28T06:09:32.095Z,6.07
2019-03-28T06:12:03.216Z,6.07
2019-03-28T06:14:34.561Z,3.83
2019-03-28T06:17:05.638Z,6.53
2019-03-28T06:19:36.807Z,3.97
2019-03-28T06:22:07.952Z,4.00
2019-03-28T06:24:39.505Z,4.93
2019-03-28T06:27:12.061Z,3.77
2019-03-28T06:29:43.146Z,3.90
2019-03-28T06:32:14.730Z,4.37
2019-03-28T06:34:45.832Z,4.97
2019-03-28T06:37:17.000Z,3.90
2019-03-28T06:39:48.116Z,4.00
2019-03-28T06:42:19.459Z,4.50
2019-03-28T06:44:50.659Z,7.90
2019-03-28T06:47:22.616Z,4.73
2019-03-28T06:49:55.284Z,17.43
2019-03-28T06:52:28.000Z,5.30
2019-03-28T06:54:59.627Z,7.80
2019-03-28T06:57:30.684Z,4.13
2019-03-28T07:00:04.861Z,10.00
2019-03-28T07:02:36.276Z,4.50
2019-03-28T07:05:07.594Z,4.53
2019-03-28T07:07:38.882Z,3.93
2019-03-28T07:10:11.017Z,4.50
2019-03-28T07:12:42.508Z,4.00
2019-03-28T07:15:14.184Z,4.43
2019-03-28T07:17:45.520Z,3.40
2019-03-28T07:20:16.780Z,3.83
2019-03-28T07:22:48.045Z,3.20
2019-03-28T07:25:19.239Z,2.93
2019-03-28T07:27:50.316Z,3.50
2019-03-28T07:30:22.166Z,3.00
2019-03-28T07:32:53.776Z,10.60
2019-03-28T07:35:25.109Z,4.73
2019-03-28T07:37:56.233Z,7.63
2019-03-28T07:40:27.466Z,2.70
2019-03-28T07:42:58.380Z,3.67
2019-03-28T07:45:34.443Z,4.37
2019-03-28T07:48:05.248Z,3.70
2019-03-28T07:50:36.132Z,3.90
2019-03-28T07:53:07.252Z,5.83
2019-03-28T07:55:37.957Z,3.53
2019-03-28T07:58:09.573Z,3.30
2019-03-28T08:00:40.445Z,8.30
2019-03-28T08:03:11.393Z,3.23
2019-03-28T08:05:42.446Z,3.07
2019-03-28T08:08:14.551Z,5.80
2019-03-28T08:10:46.054Z,3.40
2019-03-28T08:13:16.886Z,5.80
2019-03-28T08:15:48.536Z,3.90
2019-03-28T08:18:19.754Z,6.90
2019-03-28T08:20:50.981Z,7.87
2019-03-28T08:23:21.952Z,4.20
2019-03-28T08:25:52.898Z,3.60
2019-03-28T08:28:24.035Z,4.07
2019-03-28T08:30:55.008Z,4.20
2019-03-28T08:33:26.549Z,3.97
2019-03-28T08:35:59.206Z,4.07
2019-03-28T08:38:31.171Z,4.90
2019-03-28T08:41:06.778Z,3.60
2019-03-28T08:43:36.207Z,4.30
2019-03-28T08:46:08.985Z,3.37
2019-03-28T08:48:40.079Z,3.37
2019-03-28T08:51:11.731Z,5.93
2019-03-28T08:53:42.782Z,4.77
2019-03-28T08:56:13.517Z,9.53
2019-03-28T08:58:48.260Z,4.10
2019-03-28T09:01:19.847Z,3.00
2019-03-28T09:03:51.677Z,3.80
2019-03-28T09:06:22.858Z,3.93
2019-03-28T09:08:53.979Z,3.60
2019-03-28T09:11:25.023Z,3.73
2019-03-28T09:13:55.989Z,3.50
2019-03-28T09:16:26.864Z,4.23
2019-03-28T09:18:57.911Z,2.90
2019-03-28T09:21:32.935Z,3.37
2019-03-28T09:24:04.133Z,4.83
2019-03-28T09:26:35.501Z,3.10
2019-03-28T09:29:06.986Z,3.10
2019-03-28T09:31:38.403Z,3.57
2019-03-28T09:34:09.714Z,3.33
2019-03-28T09:36:41.762Z,4.07
2019-03-28T09:39:12.850Z,2.90
2019-03-28T09:41:43.808Z,4.40
2019-03-28T09:44:14.841Z,3.10
2019-03-28T09:46:46.009Z,3.40
2019-03-28T09:49:17.183Z,4.57
2019-03-28T09:51:48.556Z,4.37
2019-03-28T09:54:19.600Z,2.90
2019-03-28T09:56:50.693Z,3.70
2019-03-28T09:59:21.831Z,3.20
2019-03-28T10:01:53.289Z,3.27
2019-03-28T10:04:24.440Z,3.63
2019-03-28T10:06:55.370Z,3.00
2019-03-28T10:09:27.267Z,2.47
2019-03-28T10:11:58.828Z,2.87
2019-03-28T10:14:29.738Z,3.73
2019-03-28T10:17:01.436Z,3.47
2019-03-28T10:19:32.605Z,3.50
2019-03-28T10:22:03.379Z,4.00
2019-03-28T10:24:34.339Z,5.70
2019-03-28T10:27:05.242Z,5.67
2019-03-28T10:29:36.537Z,3.33
2019-03-28T10:32:07.375Z,3.10
2019-03-28T10:34:39.035Z,3.00
2019-03-28T10:37:10.180Z,8.43
2019-03-28T10:39:42.903Z,3.23
2019-03-28T10:42:13.807Z,3.87
2019-03-28T10:44:45.581Z,3.20
2019-03-28T10:47:16.907Z,3.40
2019-03-28T10:49:47.726Z,3.93
2019-03-28T10:52:18.733Z,3.20
2019-03-28T10:54:50.605Z,2.93
2019-03-28T10:57:29.764Z,3.03
2019-03-28T10:59:54.586Z,2.90
2019-03-28T11:02:28.778Z,3.10
2019-03-28T11:04:59.356Z,3.27
2019-03-28T11:07:30.415Z,3.00
2019-03-28T11:10:01.400Z,4.47
2019-03-28T11:12:32.985Z,3.30
2019-03-28T11:15:04.369Z,7.70
2019-03-28T11:17:35.669Z,3.30
2019-03-28T11:20:06.764Z,9.27
2019-03-28T11:22:37.663Z,3.23
2019-03-28T11:25:08.781Z,3.03
2019-03-28T11:27:39.853Z,3.73
2019-03-28T11:30:12.952Z,3.30
2019-03-28T11:32:44.948Z,3.10
2019-03-28T11:35:15.873Z,3.00
2019-03-28T11:37:46.894Z,7.93
2019-03-28T11:40:19.187Z,8.30
2019-03-28T11:42:52.047Z,5.90
2019-03-28T11:45:26.781Z,2.83
2019-03-28T11:47:56.383Z,3.23
2019-03-28T11:50:27.678Z,5.40
2019-03-28T11:52:58.634Z,3.73
2019-03-28T11:55:29.426Z,3.53
2019-03-28T11:58:00.477Z,2.90
2019-03-28T12:00:32.199Z,3.03
2019-03-28T12:03:03.497Z,9.83
2019-03-28T12:05:34.953Z,3.43
2019-03-28T12:08:05.951Z,7.50
2019-03-28T12:10:36.899Z,3.53
2019-03-28T12:13:09.006Z,3.70
2019-03-28T12:15:42.732Z,2.97
2019-03-28T12:18:13.908Z,2.77
2019-03-28T12:20:45.711Z,3.03
2019-03-28T12:23:16.714Z,4.63
2019-03-28T12:25:47.749Z,3.13
2019-03-28T12:28:18.669Z,4.20
2019-03-28T12:30:49.636Z,3.33
2019-03-28T12:33:20.613Z,2.90
2019-03-28T12:35:52.407Z,2.40
2019-03-28T12:38:24.883Z,2.83
2019-03-28T12:40:56.494Z,2.80
2019-03-28T12:43:27.801Z,7.70
2019-03-28T12:45:58.726Z,3.00
2019-03-28T12:48:29.569Z,6.60
2019-03-28T12:51:01.049Z,3.33
2019-03-28T12:53:32.362Z,5.50
2019-03-28T12:56:03.391Z,6.83
2019-03-28T12:58:34.427Z,3.97
2019-03-28T13:01:05.527Z,6.03
2019-03-28T13:03:45.460Z,7.33
2019-03-28T13:06:09.410Z,3.43
2019-03-28T13:08:40.402Z,5.03
2019-03-28T13:11:12.040Z,4.03
2019-03-28T13:13:43.018Z,3.37
2019-03-28T13:16:13.929Z,5.13
2019-03-28T13:18:44.959Z,3.50
2019-03-28T13:21:15.905Z,2.70
2019-03-28T13:23:46.929Z,5.13
2019-03-28T13:26:18.041Z,4.10
2019-03-28T13:28:49.187Z,3.20
2019-03-28T13:31:20.224Z,3.53
2019-03-28T13:33:51.226Z,3.10
2019-03-28T13:36:22.785Z,2.90
2019-03-28T13:38:53.785Z,3.10
2019-03-28T13:41:24.771Z,3.20
2019-03-28T13:43:56.743Z,3.40
2019-03-28T13:46:30.397Z,3.33
2019-03-28T13:49:01.578Z,3.10
2019-03-28T13:51:32.485Z,5.43
2019-03-28T13:54:03.364Z,3.33
2019-03-28T13:56:34.232Z,20.83
2019-03-28T13:59:05.848Z,2.70
2019-03-28T14:01:38.214Z,3.33
2019-03-28T14:04:09.222Z,3.30
2019-03-28T14:06:40.447Z,6.60
2019-03-28T14:09:11.353Z,3.10
2019-03-28T14:11:42.643Z,4.77
2019-03-28T14:14:14.886Z,3.47
2019-03-28T14:16:46.112Z,2.70
2019-03-28T14:19:17.299Z,3.10
2019-03-28T14:21:48.341Z,5.33
2019-03-28T14:24:19.616Z,5.07
2019-03-28T14:26:50.597Z,3.80
2019-03-28T14:29:21.580Z,38.67
2019-03-28T14:31:53.300Z,12.57
2019-03-28T14:34:24.739Z,2.90
2019-03-28T14:36:55.685Z,5.53
2019-03-28T14:39:26.858Z,3.50
2019-03-28T14:41:58.103Z,2.67
2019-03-28T14:44:29.417Z,2.70
2019-03-28T14:47:00.573Z,3.00
2019-03-28T14:49:31.725Z,2.53
2019-03-28T14:52:04.053Z,4.43
2019-03-28T14:54:35.218Z,12.00
2019-03-28T14:57:06.356Z,9.43
2019-03-28T14:59:38.156Z,19.07
2019-03-28T15:02:09.980Z,7.93
2019-03-28T15:04:40.952Z,5.83
2019-03-28T15:07:12.059Z,17.93
2019-03-28T15:09:43.094Z,11.30
2019-03-28T15:12:14.178Z,6.10
2019-03-28T15:14:45.860Z,29.27
2019-03-28T15:17:16.940Z,29.53
2019-03-28T15:19:47.908Z,32.23
2019-03-28T15:22:19.271Z,6.57
2019-03-28T15:24:50.417Z,5.07
2019-03-28T15:27:21.389Z,9.67
2019-03-28T15:29:52.143Z,13.27
2019-03-28T15:32:22.930Z,51.43
2019-03-28T15:34:53.974Z,71.60
2019-03-28T15:37:24.924Z,20.43
2019-03-28T15:39:57.754Z,29.00
2019-03-28T15:42:28.760Z,10.70
2019-03-28T15:44:59.881Z,14.83
2019-03-28T15:47:30.840Z,7.37
2019-03-28T15:50:01.779Z,24.63
2019-03-28T15:52:32.768Z,20.70
2019-03-28T15:55:03.977Z,13.07
2019-03-28T15:57:34.743Z,28.20
2019-03-28T16:00:06.713Z,60.10
2019-03-28T16:02:37.599Z,32.90
2019-03-28T16:05:08.680Z,65.87
2019-03-28T16:07:39.937Z,32.53
2019-03-28T16:10:14.495Z,14.40
2019-03-28T16:12:44.642Z,29.57
2019-03-28T16:15:17.465Z,16.63
2019-03-28T16:17:48.562Z,29.83
2019-03-28T16:20:19.623Z,60.13
2019-03-28T16:22:50.610Z,28.03
2019-03-28T16:25:23.345Z,23.70
2019-03-28T16:27:54.262Z,21.17
2019-03-28T16:30:36.357Z,40.30
2019-03-28T16:33:07.686Z,20.13
2019-03-28T16:35:38.478Z,12.67
2019-03-28T16:38:09.373Z,12.63
2019-03-28T16:40:40.447Z,24.70
2019-03-28T16:43:11.335Z,17.57
2019-03-28T16:45:43.943Z,24.17
2019-03-28T16:48:15.198Z,15.47
2019-03-28T16:50:46.300Z,20.73
2019-03-28T16:53:16.913Z,12.83
2019-03-28T16:55:48.176Z,34.80
2019-03-28T16:58:19.929Z,24.23
2019-03-28T17:00:50.979Z,27.23
2019-03-28T17:03:21.805Z,24.27
2019-03-28T17:05:52.754Z,21.03
2019-03-28T17:08:23.815Z,27.40
2019-03-28T17:10:55.359Z,19.93
2019-03-28T17:13:26.451Z,24.13
2019-03-28T17:15:58.342Z,24.63
2019-03-28T17:18:29.415Z,21.00
2019-03-28T17:21:00.135Z,24.00
2019-03-28T17:23:31.921Z,27.53
2019-03-28T17:26:02.860Z,23.87
2019-03-28T17:28:33.655Z,23.80
2019-03-28T17:31:04.734Z,26.70
2019-03-28T17:33:35.552Z,34.27
2019-03-28T17:36:07.133Z,19.90
2019-03-28T17:38:38.217Z,21.30
2019-03-28T17:41:09.290Z,21.07
2019-03-28T17:43:41.217Z,29.20
2019-03-28T17:46:15.330Z,29.97
2019-03-28T17:48:46.385Z,41.03
2019-03-28T17:51:17.279Z,58.93
2019-03-28T17:53:48.244Z,51.93
2019-03-28T17:56:21.154Z,50.43
2019-03-28T17:58:53.607Z,53.30
2019-03-28T18:01:24.691Z,47.83
2019-03-28T18:03:55.681Z,37.50
2019-03-28T18:06:27.475Z,36.73
2019-03-28T18:08:58.229Z,57.10
2019-03-28T18:11:29.464Z,58.30
2019-03-28T18:14:00.498Z,60.43
2019-03-28T18:16:31.556Z,64.00
2019-03-28T18:19:02.733Z,58.10
2019-03-28T18:21:34.054Z,53.43
2019-03-28T18:24:05.612Z,49.03
2019-03-28T18:26:36.864Z,62.43
2019-03-28T18:29:08.129Z,51.73
2019-03-28T18:31:49.658Z,48.90
2019-03-28T18:34:12.466Z,39.50
2019-03-28T18:36:43.463Z,39.40
2019-03-28T18:39:14.638Z,35.83
2019-03-28T18:41:45.901Z,31.50
2019-03-28T18:44:16.808Z,37.40
2019-03-28T18:46:48.205Z,29.17
2019-03-28T18:49:19.554Z,30.17
2019-03-28T18:51:50.449Z,35.43
2019-03-28T18:54:21.315Z,42.57
2019-03-28T18:56:52.247Z,39.43
2019-03-28T18:59:23.813Z,38.33
2019-03-28T19:01:57.219Z,37.83
2019-03-28T19:04:29.796Z,32.13
2019-03-28T19:07:05.356Z,34.73
2019-03-28T19:09:36.569Z,27.57
2019-03-28T19:12:16.257Z,38.65
2019-03-28T19:14:47.315Z,32.85
2019-03-28T19:17:20.016Z,44.07
2019-03-28T19:19:51.402Z,34.63
2019-03-28T19:22:23.901Z,29.67
2019-03-28T19:24:54.799Z,28.53
2019-03-28T19:27:25.850Z,26.25
2019-03-28T19:29:56.770Z,32.75
2019-03-28T19:32:29.812Z,28.50
2019-03-28T19:35:03.009Z,25.95
2019-03-28T19:37:33.521Z,24.12
2019-03-28T19:40:06.919Z,29.95
2019-03-28T19:42:38.223Z,32.58
2019-03-28T19:45:09.781Z,21.87
2019-03-28T19:47:40.728Z,27.90
2019-03-28T19:50:15.639Z,26.57
2019-03-28T19:52:46.761Z,24.47
2019-03-28T19:55:21.884Z,23.10
2019-03-28T19:57:52.907Z,38.42
2019-03-28T20:00:24.572Z,28.95
2019-03-28T20:02:55.917Z,25.40
2019-03-28T20:05:27.004Z,27.58
2019-03-28T20:07:58.203Z,20.15
2019-03-28T20:10:29.785Z,25.13
2019-03-28T20:13:00.517Z,26.60
2019-03-28T20:15:31.447Z,28.85
2019-03-28T20:18:03.151Z,23.80
2019-03-28T20:20:34.087Z,19.83
2019-03-28T20:23:06.074Z,21.57
2019-03-28T20:25:37.168Z,19.63
2019-03-28T20:28:09.421Z,18.93
2019-03-28T20:30:40.364Z,20.00
2019-03-28T20:33:11.838Z,19.33
2019-03-28T20:35:43.943Z,17.30
2019-03-28T20:38:15.075Z,16.87
2019-03-28T20:40:46.068Z,16.97
2019-03-28T20:43:16.998Z,22.77
2019-03-28T20:45:48.787Z,20.90
2019-03-28T20:48:20.179Z,28.37
2019-03-28T20:50:51.136Z,24.63
2019-03-28T20:53:22.367Z,22.17
2019-03-28T20:55:53.659Z,23.17
2019-03-28T20:58:24.398Z,20.60
2019-03-28T21:00:55.525Z,23.60
2019-03-28T21:03:27.021Z,28.23
2019-03-28T21:05:58.281Z,24.20
2019-03-28T21:08:29.349Z,19.50
2019-03-28T21:11:00.320Z,16.47
2019-03-28T21:13:31.462Z,16.37
2019-03-28T21:16:02.365Z,18.90
2019-03-28T21:18:33.280Z,16.13
2019-03-28T21:21:04.544Z,16.30
2019-03-28T21:23:36.009Z,22.87
2019-03-28T21:26:07.099Z,13.23
2019-03-28T21:28:47.192Z,11.47
2019-03-28T21:31:11.067Z,12.35
2019-03-28T21:33:42.404Z,12.67
2019-03-28T21:36:13.612Z,10.80
2019-03-28T21:38:44.547Z,10.45
2019-03-28T21:41:15.697Z,11.93
2019-03-28T21:43:46.646Z,12.10
2019-03-28T21:46:17.632Z,15.72
2019-03-28T21:48:48.623Z,12.25
2019-03-28T21:51:19.479Z,11.15
2019-03-28T21:53:51.530Z,9.97
2019-03-28T21:56:22.341Z,9.37
2019-03-28T21:58:53.068Z,11.90
2019-03-28T22:01:23.976Z,9.00
2019-03-28T22:03:55.209Z,10.38
2019-03-28T22:06:42.090Z,10.43
2019-03-28T22:09:01.339Z,9.88
2019-03-28T22:11:32.262Z,9.15
2019-03-28T22:14:03.424Z,9.60
2019-03-28T22:16:34.056Z,8.68
2019-03-28T22:19:05.479Z,8.55
2019-03-28T22:21:36.388Z,7.15
2019-03-28T22:24:07.480Z,7.22
2019-03-28T22:26:38.797Z,6.37
2019-03-28T22:29:10.362Z,6.30
2019-03-28T22:31:41.353Z,5.97
2019-03-28T22:34:12.572Z,8.93
2019-03-28T22:36:56.597Z,10.50
2019-03-28T22:39:16.868Z,8.10
2019-03-28T22:41:48.267Z,9.20
2019-03-28T22:44:19.876Z,7.62
2019-03-28T22:46:51.321Z,10.32
2019-03-28T22:49:22.368Z,9.08
2019-03-28T22:51:53.805Z,10.40
2019-03-28T22:54:24.864Z,6.95
2019-03-28T22:56:56.166Z,11.22
2019-03-28T22:59:27.642Z,11.75
2019-03-28T23:01:59.373Z,13.78
2019-03-28T23:04:30.728Z,8.18
2019-03-28T23:07:10.739Z,11.97
2019-03-28T23:09:35.094Z,9.80
2019-03-28T23:12:06.511Z,9.10
2019-03-28T23:14:37.986Z,14.95
2019-03-28T23:17:09.426Z,13.03
2019-03-28T23:19:40.985Z,8.55
2019-03-28T23:22:12.400Z,6.05
2019-03-28T23:24:44.384Z,8.13
2019-03-28T23:27:15.938Z,5.78
2019-03-28T23:29:50.164Z,10.75
2019-03-28T23:32:21.980Z,15.83
2019-03-28T23:34:53.479Z,7.83
2019-03-28T23:37:26.130Z,6.55
2019-03-28T23:39:58.043Z,7.33
2019-03-28T23:42:31.563Z,5.10
2019-03-28T23:45:02.625Z,5.00
2019-03-28T23:47:34.146Z,4.65
2019-03-28T23:50:06.970Z,5.92
2019-03-28T23:52:38.558Z,4.55
2019-03-28T23:55:09.893Z,4.35
2019-03-28T23:57:41.124Z,7.83
